RYR45QN LBSF-LOWW
Flight info
| Callsign | RYR45QN |
|---|---|
| Flight time | 1h 22m |
| Altitude | 36000 |
| Route | OGOTA3T/27 OGOTA T228 UTEKA DCT DONIV DCT PARAK DCT BALUX DCT TORNO DCT NATEX NATEX2W |
| Aircraft | A320/M-SDE3FGHIRWY/LB1 |
Departure
| Time | 2026-05-04 19:38 |
|---|---|
| Airport | Sofia Airport (LBSF) |
Arrival
| Time | 2026-05-04 21:01 |
|---|---|
| Airport | Vienna International Airport (LOWW) |
| Time | Latitude | Longitude | Altitude | Speed | Heading |
|---|---|---|---|---|---|
| 2026-05-04 19:14 | 42.68996 | 23.40685 | 1742 ft | 0 kts | 196° |
| 2026-05-04 19:30 | 42.68993 | 23.40684 | 1749 ft | 3 kts | 196° |
| 2026-05-04 19:30 | 42.68954 | 23.40680 | 1749 ft | 6 kts | 157° |
| 2026-05-04 19:31 | 42.68934 | 23.40735 | 1747 ft | 12 kts | 107° |
| 2026-05-04 19:31 | 42.68913 | 23.40836 | 1746 ft | 9 kts | 104° |
| 2026-05-04 19:31 | 42.68922 | 23.40927 | 1743 ft | 11 kts | 72° |
| 2026-05-04 19:31 | 42.68950 | 23.41045 | 1742 ft | 15 kts | 72° |
| 2026-05-04 19:32 | 42.68985 | 23.41174 | 1748 ft | 14 kts | 56° |
| 2026-05-04 19:32 | 42.69072 | 23.41212 | 1768 ft | 14 kts | 342° |
| 2026-05-04 19:32 | 42.69151 | 23.41177 | 1743 ft | 12 kts | 342° |
| 2026-05-04 19:32 | 42.69238 | 23.41151 | 1747 ft | 12 kts | 4° |
| 2026-05-04 19:33 | 42.69341 | 23.41179 | 1750 ft | 18 kts | 12° |
| 2026-05-04 19:33 | 42.69454 | 23.41216 | 1750 ft | 16 kts | 24° |
| 2026-05-04 19:33 | 42.69483 | 23.41333 | 1744 ft | 13 kts | 94° |
| 2026-05-04 19:33 | 42.69476 | 23.41451 | 1750 ft | 12 kts | 95° |
| 2026-05-04 19:34 | 42.69470 | 23.41558 | 1750 ft | 11 kts | 95° |
| 2026-05-04 19:34 | 42.69462 | 23.41673 | 1747 ft | 16 kts | 95° |
| 2026-05-04 19:34 | 42.69451 | 23.41873 | 1747 ft | 23 kts | 95° |
| 2026-05-04 19:34 | 42.69438 | 23.42089 | 1751 ft | 23 kts | 94° |
| 2026-05-04 19:35 | 42.69424 | 23.42314 | 1751 ft | 24 kts | 95° |
| 2026-05-04 19:35 | 42.69410 | 23.42543 | 1751 ft | 25 kts | 95° |
| 2026-05-04 19:35 | 42.69397 | 23.42770 | 1752 ft | 24 kts | 95° |
| 2026-05-04 19:35 | 42.69383 | 23.43003 | 1749 ft | 25 kts | 95° |
| 2026-05-04 19:36 | 42.69369 | 23.43233 | 1752 ft | 24 kts | 95° |
| 2026-05-04 19:36 | 42.69355 | 23.43464 | 1752 ft | 24 kts | 95° |
| 2026-05-04 19:36 | 42.69342 | 23.43694 | 1753 ft | 24 kts | 95° |
| 2026-05-04 19:36 | 42.69333 | 23.43886 | 1753 ft | 14 kts | 82° |
| 2026-05-04 19:37 | 42.69393 | 23.43946 | 1759 ft | 10 kts | 5° |
| 2026-05-04 19:37 | 42.69456 | 23.43952 | 1756 ft | 9 kts | 5° |
| 2026-05-04 19:37 | 42.69516 | 23.43906 | 1752 ft | 14 kts | 292° |
| 2026-05-04 19:37 | 42.69521 | 23.43852 | 1753 ft | 6 kts | 274° |
| 2026-05-04 19:38 | 42.69543 | 23.43465 | 1748 ft | 79 kts | 275° |
| 2026-05-04 19:38 | 42.69606 | 23.42415 | 1750 ft | 141 kts | 275° |
| 2026-05-04 19:38 | 42.69706 | 23.40905 | 2020 ft | 165 kts | 274° |
| 2026-05-04 19:38 | 42.69845 | 23.39364 | 2729 ft | 167 kts | 284° |
| 2026-05-04 19:39 | 42.70284 | 23.37859 | 3226 ft | 180 kts | 297° |
| 2026-05-04 19:39 | 42.71101 | 23.36427 | 3513 ft | 205 kts | 316° |
| 2026-05-04 19:39 | 42.72359 | 23.35306 | 3802 ft | 231 kts | 338° |
| 2026-05-04 19:39 | 42.73998 | 23.34801 | 4211 ft | 254 kts | 353° |
| 2026-05-04 19:40 | 42.75785 | 23.34514 | 5036 ft | 261 kts | 353° |
| 2026-05-04 19:40 | 42.77596 | 23.34219 | 5985 ft | 263 kts | 354° |
| 2026-05-04 19:40 | 42.79426 | 23.33919 | 6917 ft | 266 kts | 354° |
| 2026-05-04 19:40 | 42.81242 | 23.33620 | 7830 ft | 267 kts | 355° |
| 2026-05-04 19:41 | 42.83096 | 23.33313 | 8767 ft | 269 kts | 356° |
| 2026-05-04 19:41 | 42.84957 | 23.33009 | 9661 ft | 270 kts | 358° |
| 2026-05-04 19:41 | 42.86852 | 23.32861 | 10317 ft | 281 kts | 1° |
| 2026-05-04 19:41 | 42.88889 | 23.32828 | 10591 ft | 304 kts | 2° |
| 2026-05-04 19:42 | 42.91075 | 23.32842 | 10952 ft | 322 kts | 3° |
| 2026-05-04 19:42 | 42.93342 | 23.32862 | 11584 ft | 329 kts | 3° |
| 2026-05-04 19:42 | 42.95652 | 23.32873 | 12330 ft | 333 kts | 2° |
| 2026-05-04 19:42 | 42.97990 | 23.32870 | 13065 ft | 338 kts | 2° |
| 2026-05-04 19:43 | 43.00358 | 23.32856 | 13792 ft | 343 kts | 2° |
| 2026-05-04 19:43 | 43.02737 | 23.32836 | 14423 ft | 348 kts | 2° |
| 2026-05-04 19:43 | 43.05181 | 23.32815 | 15090 ft | 352 kts | 2° |
| 2026-05-04 19:43 | 43.07637 | 23.32796 | 15736 ft | 355 kts | 2° |
| 2026-05-04 19:44 | 43.10129 | 23.32775 | 16371 ft | 360 kts | 1° |
| 2026-05-04 19:44 | 43.12645 | 23.32753 | 17007 ft | 363 kts | 1° |
| 2026-05-04 19:44 | 43.15190 | 23.32726 | 17656 ft | 367 kts | 1° |
| 2026-05-04 19:44 | 43.17754 | 23.32496 | 18259 ft | 373 kts | 350° |
| 2026-05-04 19:45 | 43.20201 | 23.31242 | 18806 ft | 381 kts | 331° |
| 2026-05-04 19:45 | 43.22290 | 23.28970 | 19381 ft | 386 kts | 319° |
| 2026-05-04 19:45 | 43.24262 | 23.26456 | 19981 ft | 388 kts | 319° |
| 2026-05-04 19:45 | 43.26232 | 23.23920 | 20605 ft | 389 kts | 318° |
| 2026-05-04 19:46 | 43.28208 | 23.21367 | 21196 ft | 391 kts | 318° |
| 2026-05-04 19:46 | 43.30166 | 23.18835 | 21809 ft | 392 kts | 317° |
| 2026-05-04 19:46 | 43.32163 | 23.16256 | 22358 ft | 395 kts | 317° |
| 2026-05-04 19:46 | 43.34176 | 23.13663 | 22928 ft | 397 kts | 317° |
| 2026-05-04 19:47 | 43.36197 | 23.11061 | 23494 ft | 399 kts | 317° |
| 2026-05-04 19:47 | 43.38223 | 23.08451 | 23957 ft | 401 kts | 317° |
| 2026-05-04 19:47 | 43.40265 | 23.05819 | 24362 ft | 404 kts | 317° |
| 2026-05-04 19:47 | 43.42325 | 23.03165 | 24752 ft | 407 kts | 317° |
| 2026-05-04 19:48 | 43.44399 | 23.00491 | 25118 ft | 410 kts | 317° |
| 2026-05-04 19:48 | 43.46485 | 22.97793 | 25486 ft | 413 kts | 316° |
| 2026-05-04 19:48 | 43.48584 | 22.95070 | 25875 ft | 415 kts | 316° |
| 2026-05-04 19:48 | 43.50694 | 22.92331 | 26265 ft | 417 kts | 316° |
| 2026-05-04 19:49 | 43.52809 | 22.89582 | 26615 ft | 420 kts | 316° |
| 2026-05-04 19:49 | 43.54951 | 22.86797 | 26953 ft | 423 kts | 316° |
| 2026-05-04 19:49 | 43.57099 | 22.84002 | 27307 ft | 426 kts | 315° |
| 2026-05-04 19:49 | 43.59258 | 22.81192 | 27683 ft | 428 kts | 316° |
| 2026-05-04 19:50 | 43.61430 | 22.78365 | 28002 ft | 430 kts | 316° |
| 2026-05-04 19:50 | 43.63614 | 22.75517 | 28336 ft | 433 kts | 317° |
| 2026-05-04 19:50 | 43.65778 | 22.72691 | 28667 ft | 435 kts | 316° |
| 2026-05-04 19:50 | 43.67988 | 22.69799 | 28975 ft | 437 kts | 316° |
| 2026-05-04 19:51 | 43.70205 | 22.66895 | 29298 ft | 439 kts | 316° |
| 2026-05-04 19:51 | 43.72429 | 22.63981 | 29599 ft | 441 kts | 316° |
| 2026-05-04 19:51 | 43.74668 | 22.61047 | 29878 ft | 444 kts | 316° |
| 2026-05-04 19:51 | 43.76888 | 22.58136 | 30145 ft | 446 kts | 316° |
| 2026-05-04 19:52 | 43.79143 | 22.55171 | 30386 ft | 447 kts | 316° |
| 2026-05-04 19:52 | 43.81395 | 22.52205 | 30650 ft | 447 kts | 317° |
| 2026-05-04 19:52 | 43.83699 | 22.49166 | 30917 ft | 447 kts | 317° |
| 2026-05-04 19:52 | 43.85904 | 22.46257 | 31237 ft | 446 kts | 317° |
| 2026-05-04 19:53 | 43.88144 | 22.43298 | 31572 ft | 444 kts | 318° |
| 2026-05-04 19:53 | 43.90377 | 22.40347 | 31904 ft | 442 kts | 318° |
| 2026-05-04 19:53 | 43.92591 | 22.37379 | 32058 ft | 442 kts | 317° |
| 2026-05-04 19:54 | 43.96887 | 22.31289 | 32079 ft | 441 kts | 315° |
| 2026-05-04 19:54 | 44.01111 | 22.25101 | 32084 ft | 441 kts | 315° |
| 2026-05-04 19:55 | 44.05355 | 22.18928 | 32082 ft | 441 kts | 316° |
| 2026-05-04 19:55 | 44.09618 | 22.12791 | 32087 ft | 441 kts | 316° |
| 2026-05-04 19:56 | 44.13878 | 22.06657 | 32086 ft | 441 kts | 316° |
| 2026-05-04 19:56 | 44.18101 | 22.00544 | 32093 ft | 440 kts | 316° |
| 2026-05-04 19:57 | 44.22336 | 21.94391 | 32101 ft | 440 kts | 316° |
| 2026-05-04 19:57 | 44.26570 | 21.88234 | 32098 ft | 440 kts | 316° |
| 2026-05-04 19:58 | 44.30806 | 21.82066 | 32097 ft | 440 kts | 316° |
| 2026-05-04 19:58 | 44.35033 | 21.75891 | 32098 ft | 439 kts | 316° |
| 2026-05-04 19:59 | 44.39250 | 21.69707 | 32094 ft | 439 kts | 316° |
| 2026-05-04 19:59 | 44.43466 | 21.63521 | 32094 ft | 439 kts | 316° |
| 2026-05-04 20:00 | 44.47673 | 21.57331 | 32097 ft | 439 kts | 316° |
| 2026-05-04 20:00 | 44.51847 | 21.51177 | 32084 ft | 437 kts | 316° |
| 2026-05-04 20:01 | 44.56028 | 21.45012 | 32094 ft | 436 kts | 316° |
| 2026-05-04 20:01 | 44.60201 | 21.38834 | 32086 ft | 436 kts | 316° |
| 2026-05-04 20:02 | 44.64366 | 21.32653 | 32090 ft | 436 kts | 316° |
| 2026-05-04 20:02 | 44.68530 | 21.26447 | 32086 ft | 436 kts | 316° |
| 2026-05-04 20:03 | 44.72689 | 21.20258 | 32084 ft | 434 kts | 317° |
| 2026-05-04 20:03 | 44.77373 | 21.15130 | 32084 ft | 428 kts | 333° |
| 2026-05-04 20:04 | 44.82648 | 21.11231 | 32084 ft | 428 kts | 334° |
| 2026-05-04 20:04 | 44.87918 | 21.07317 | 32083 ft | 428 kts | 334° |
| 2026-05-04 20:05 | 44.93198 | 21.03383 | 32066 ft | 428 kts | 334° |
| 2026-05-04 20:05 | 44.98429 | 20.99496 | 32084 ft | 428 kts | 334° |
| 2026-05-04 20:06 | 45.03699 | 20.95559 | 32083 ft | 428 kts | 334° |
| 2026-05-04 20:06 | 45.08965 | 20.91620 | 32084 ft | 428 kts | 334° |
| 2026-05-04 20:07 | 45.13338 | 20.88337 | 32084 ft | 428 kts | 334° |
| 2026-05-04 20:07 | 45.18609 | 20.84382 | 32084 ft | 428 kts | 334° |
| 2026-05-04 20:08 | 45.23887 | 20.80416 | 32082 ft | 430 kts | 333° |
| 2026-05-04 20:08 | 45.29171 | 20.76432 | 32081 ft | 430 kts | 333° |
| 2026-05-04 20:09 | 45.34459 | 20.72443 | 32084 ft | 430 kts | 334° |
| 2026-05-04 20:09 | 45.39734 | 20.68447 | 32080 ft | 430 kts | 333° |
| 2026-05-04 20:10 | 45.44984 | 20.64460 | 32082 ft | 430 kts | 333° |
| 2026-05-04 20:10 | 45.50266 | 20.60453 | 32081 ft | 431 kts | 333° |
| 2026-05-04 20:11 | 45.55566 | 20.56418 | 32075 ft | 432 kts | 333° |
| 2026-05-04 20:11 | 45.60861 | 20.52375 | 32072 ft | 432 kts | 333° |
| 2026-05-04 20:12 | 45.66158 | 20.48316 | 32078 ft | 432 kts | 333° |
| 2026-05-04 20:12 | 45.71449 | 20.44246 | 32069 ft | 432 kts | 333° |
| 2026-05-04 20:13 | 45.76749 | 20.40170 | 32076 ft | 433 kts | 333° |
| 2026-05-04 20:13 | 45.82060 | 20.36086 | 32069 ft | 433 kts | 333° |
| 2026-05-04 20:14 | 45.87385 | 20.31983 | 32068 ft | 433 kts | 333° |
| 2026-05-04 20:14 | 45.92662 | 20.27894 | 32067 ft | 433 kts | 332° |
| 2026-05-04 20:15 | 45.97977 | 20.23770 | 32074 ft | 433 kts | 333° |
| 2026-05-04 20:15 | 46.03281 | 20.19650 | 32059 ft | 434 kts | 332° |
| 2026-05-04 20:16 | 46.08609 | 20.15509 | 32172 ft | 436 kts | 332° |
| 2026-05-04 20:16 | 46.11279 | 20.13427 | 32490 ft | 435 kts | 332° |
| 2026-05-04 20:16 | 46.13939 | 20.11347 | 32810 ft | 434 kts | 332° |
| 2026-05-04 20:16 | 46.16596 | 20.09267 | 33121 ft | 434 kts | 332° |
| 2026-05-04 20:17 | 46.19209 | 20.07200 | 33426 ft | 433 kts | 332° |
| 2026-05-04 20:17 | 46.21879 | 20.05062 | 33740 ft | 433 kts | 331° |
| 2026-05-04 20:17 | 46.24471 | 20.02972 | 34049 ft | 432 kts | 331° |
| 2026-05-04 20:17 | 46.27101 | 20.00850 | 34315 ft | 432 kts | 331° |
| 2026-05-04 20:18 | 46.29723 | 19.98738 | 34575 ft | 432 kts | 331° |
| 2026-05-04 20:18 | 46.32353 | 19.96617 | 34833 ft | 431 kts | 331° |
| 2026-05-04 20:18 | 46.34976 | 19.94502 | 35086 ft | 431 kts | 331° |
| 2026-05-04 20:18 | 46.37596 | 19.92391 | 35337 ft | 431 kts | 331° |
| 2026-05-04 20:19 | 46.40214 | 19.90282 | 35571 ft | 430 kts | 331° |
| 2026-05-04 20:19 | 46.42827 | 19.88175 | 35807 ft | 430 kts | 331° |
| 2026-05-04 20:19 | 46.45440 | 19.86065 | 36005 ft | 430 kts | 331° |
| 2026-05-04 20:20 | 46.50667 | 19.81833 | 36065 ft | 429 kts | 331° |
| 2026-05-04 20:20 | 46.55877 | 19.77600 | 36065 ft | 429 kts | 331° |
| 2026-05-04 20:21 | 46.61086 | 19.73355 | 36072 ft | 429 kts | 330° |
| 2026-05-04 20:21 | 46.68863 | 19.67017 | 36065 ft | 429 kts | 330° |
| 2026-05-04 20:22 | 46.74063 | 19.62765 | 36068 ft | 429 kts | 330° |
| 2026-05-04 20:22 | 46.79262 | 19.58502 | 36065 ft | 429 kts | 330° |
| 2026-05-04 20:23 | 46.84466 | 19.54222 | 36055 ft | 429 kts | 330° |
| 2026-05-04 20:23 | 46.89658 | 19.49937 | 36049 ft | 428 kts | 330° |
| 2026-05-04 20:24 | 46.94856 | 19.45647 | 36050 ft | 428 kts | 330° |
| 2026-05-04 20:24 | 47.00046 | 19.41361 | 36057 ft | 428 kts | 330° |
| 2026-05-04 20:25 | 47.05229 | 19.37053 | 36052 ft | 428 kts | 330° |
| 2026-05-04 20:25 | 47.10409 | 19.32743 | 36053 ft | 428 kts | 330° |
| 2026-05-04 20:26 | 47.15561 | 19.28452 | 36043 ft | 428 kts | 330° |
| 2026-05-04 20:26 | 47.20748 | 19.24129 | 36047 ft | 428 kts | 330° |
| 2026-05-04 20:27 | 47.25928 | 19.19796 | 36045 ft | 428 kts | 330° |
| 2026-05-04 20:27 | 47.31027 | 19.15288 | 36048 ft | 428 kts | 322° |
| 2026-05-04 20:28 | 47.35096 | 19.08942 | 36046 ft | 427 kts | 303° |
| 2026-05-04 20:28 | 47.37786 | 19.01138 | 36040 ft | 428 kts | 295° |
| 2026-05-04 20:29 | 47.40296 | 18.93154 | 36033 ft | 428 kts | 295° |
| 2026-05-04 20:29 | 47.42791 | 18.85170 | 35412 ft | 427 kts | 295° |
| 2026-05-04 20:30 | 47.44033 | 18.81180 | 34633 ft | 429 kts | 296° |
| 2026-05-04 20:30 | 47.45279 | 18.77169 | 33837 ft | 430 kts | 296° |
| 2026-05-04 20:30 | 47.46528 | 18.73146 | 32915 ft | 432 kts | 295° |
| 2026-05-04 20:30 | 47.47784 | 18.69099 | 32106 ft | 434 kts | 295° |
| 2026-05-04 20:31 | 47.49044 | 18.65034 | 31459 ft | 435 kts | 295° |
| 2026-05-04 20:31 | 47.50302 | 18.60974 | 30841 ft | 432 kts | 295° |
| 2026-05-04 20:31 | 47.51528 | 18.56992 | 30236 ft | 429 kts | 295° |
| 2026-05-04 20:31 | 47.52758 | 18.52980 | 29549 ft | 427 kts | 295° |
| 2026-05-04 20:32 | 47.53948 | 18.48980 | 28844 ft | 423 kts | 291° |
| 2026-05-04 20:32 | 47.54859 | 18.44852 | 28169 ft | 420 kts | 288° |
| 2026-05-04 20:32 | 47.55734 | 18.40733 | 27505 ft | 417 kts | 288° |
| 2026-05-04 20:32 | 47.56605 | 18.36650 | 26854 ft | 414 kts | 288° |
| 2026-05-04 20:33 | 47.57472 | 18.32597 | 26213 ft | 411 kts | 288° |
| 2026-05-04 20:33 | 47.58333 | 18.28571 | 25592 ft | 409 kts | 288° |
| 2026-05-04 20:33 | 47.59187 | 18.24565 | 24994 ft | 406 kts | 288° |
| 2026-05-04 20:33 | 47.60030 | 18.20592 | 24391 ft | 403 kts | 288° |
| 2026-05-04 20:34 | 47.60865 | 18.16633 | 23809 ft | 400 kts | 287° |
| 2026-05-04 20:34 | 47.61691 | 18.12707 | 23162 ft | 398 kts | 287° |
| 2026-05-04 20:34 | 47.62517 | 18.08790 | 22482 ft | 397 kts | 287° |
| 2026-05-04 20:34 | 47.63338 | 18.04888 | 21817 ft | 396 kts | 287° |
| 2026-05-04 20:35 | 47.64155 | 18.00998 | 21165 ft | 395 kts | 287° |
| 2026-05-04 20:35 | 47.64969 | 17.97113 | 20532 ft | 394 kts | 286° |
| 2026-05-04 20:35 | 47.65767 | 17.93290 | 19919 ft | 393 kts | 286° |
| 2026-05-04 20:35 | 47.66574 | 17.89415 | 19312 ft | 392 kts | 285° |
| 2026-05-04 20:36 | 47.67378 | 17.85547 | 18717 ft | 392 kts | 285° |
| 2026-05-04 20:36 | 47.68178 | 17.81689 | 18108 ft | 391 kts | 285° |
| 2026-05-04 20:36 | 47.68976 | 17.77840 | 17475 ft | 390 kts | 285° |
| 2026-05-04 20:36 | 47.69766 | 17.74000 | 16822 ft | 389 kts | 285° |
| 2026-05-04 20:37 | 47.70556 | 17.70159 | 16178 ft | 388 kts | 285° |
| 2026-05-04 20:37 | 47.71345 | 17.66337 | 15544 ft | 386 kts | 285° |
| 2026-05-04 20:37 | 47.72129 | 17.62535 | 14926 ft | 385 kts | 284° |
| 2026-05-04 20:37 | 47.72904 | 17.58775 | 14688 ft | 373 kts | 284° |
| 2026-05-04 20:38 | 47.73641 | 17.55203 | 14554 ft | 359 kts | 284° |
| 2026-05-04 20:38 | 47.74308 | 17.51701 | 14337 ft | 346 kts | 278° |
| 2026-05-04 20:38 | 47.74530 | 17.48188 | 14041 ft | 340 kts | 266° |
| 2026-05-04 20:38 | 47.74323 | 17.44708 | 13988 ft | 339 kts | 261° |
| 2026-05-04 20:39 | 47.74067 | 17.41219 | 13983 ft | 340 kts | 262° |
| 2026-05-04 20:39 | 47.73820 | 17.37728 | 13984 ft | 340 kts | 262° |
| 2026-05-04 20:39 | 47.73576 | 17.34235 | 13976 ft | 340 kts | 262° |
| 2026-05-04 20:39 | 47.73333 | 17.30743 | 13969 ft | 340 kts | 262° |
| 2026-05-04 20:40 | 47.73087 | 17.27247 | 13973 ft | 340 kts | 262° |
| 2026-05-04 20:40 | 47.72837 | 17.23747 | 13977 ft | 340 kts | 262° |
| 2026-05-04 20:40 | 47.72584 | 17.20252 | 13965 ft | 340 kts | 262° |
| 2026-05-04 20:40 | 47.72330 | 17.16758 | 13972 ft | 340 kts | 262° |
| 2026-05-04 20:41 | 47.72078 | 17.13262 | 13965 ft | 340 kts | 262° |
| 2026-05-04 20:41 | 47.72143 | 17.09749 | 13966 ft | 344 kts | 278° |
| 2026-05-04 20:41 | 47.72943 | 17.06390 | 13971 ft | 349 kts | 297° |
| 2026-05-04 20:41 | 47.74445 | 17.03544 | 13963 ft | 353 kts | 315° |
| 2026-05-04 20:42 | 47.76497 | 17.01509 | 13962 ft | 357 kts | 330° |
| 2026-05-04 20:42 | 47.78677 | 16.99852 | 13964 ft | 357 kts | 330° |
| 2026-05-04 20:42 | 47.80885 | 16.98141 | 13963 ft | 357 kts | 326° |
| 2026-05-04 20:42 | 47.82727 | 16.95755 | 13962 ft | 350 kts | 304° |
| 2026-05-04 20:43 | 47.83870 | 16.92608 | 13967 ft | 345 kts | 289° |
| 2026-05-04 20:43 | 47.84806 | 16.89317 | 13951 ft | 347 kts | 296° |
| 2026-05-04 20:43 | 47.86093 | 16.86286 | 13552 ft | 345 kts | 300° |
| 2026-05-04 20:43 | 47.87424 | 16.83321 | 13048 ft | 344 kts | 301° |
| 2026-05-04 20:44 | 47.88761 | 16.80380 | 12553 ft | 342 kts | 301° |
| 2026-05-04 20:44 | 47.90089 | 16.77465 | 12071 ft | 339 kts | 301° |
| 2026-05-04 20:44 | 47.91405 | 16.74563 | 11594 ft | 337 kts | 301° |
| 2026-05-04 20:44 | 47.92711 | 16.71666 | 11122 ft | 335 kts | 301° |
| 2026-05-04 20:45 | 47.94000 | 16.68795 | 10663 ft | 333 kts | 301° |
| 2026-05-04 20:45 | 47.95280 | 16.65932 | 10187 ft | 331 kts | 301° |
| 2026-05-04 20:45 | 47.96544 | 16.63097 | 9993 ft | 322 kts | 301° |
| 2026-05-04 20:45 | 47.97755 | 16.60389 | 10004 ft | 305 kts | 301° |
| 2026-05-04 20:46 | 47.98912 | 16.57801 | 10007 ft | 296 kts | 300° |
| 2026-05-04 20:46 | 48.00048 | 16.55249 | 10007 ft | 295 kts | 300° |
| 2026-05-04 20:46 | 48.01181 | 16.52702 | 10008 ft | 294 kts | 300° |
| 2026-05-04 20:46 | 48.02307 | 16.50151 | 10008 ft | 294 kts | 299° |
| 2026-05-04 20:47 | 48.03381 | 16.47560 | 10007 ft | 293 kts | 298° |
| 2026-05-04 20:47 | 48.04424 | 16.44936 | 10008 ft | 293 kts | 297° |
| 2026-05-04 20:47 | 48.05449 | 16.42316 | 10008 ft | 293 kts | 297° |
| 2026-05-04 20:47 | 48.06480 | 16.39682 | 10008 ft | 293 kts | 297° |
| 2026-05-04 20:48 | 48.07512 | 16.37057 | 10005 ft | 293 kts | 298° |
| 2026-05-04 20:48 | 48.08554 | 16.34417 | 10000 ft | 293 kts | 298° |
| 2026-05-04 20:48 | 48.09588 | 16.31806 | 9994 ft | 293 kts | 298° |
| 2026-05-04 20:48 | 48.10626 | 16.29188 | 9937 ft | 292 kts | 298° |
| 2026-05-04 20:49 | 48.11662 | 16.26576 | 9671 ft | 292 kts | 298° |
| 2026-05-04 20:49 | 48.12660 | 16.23942 | 9358 ft | 289 kts | 295° |
| 2026-05-04 20:49 | 48.13564 | 16.21260 | 9042 ft | 287 kts | 293° |
| 2026-05-04 20:49 | 48.14417 | 16.18591 | 8734 ft | 282 kts | 292° |
| 2026-05-04 20:50 | 48.15243 | 16.15965 | 8427 ft | 276 kts | 292° |
| 2026-05-04 20:50 | 48.16034 | 16.13455 | 8141 ft | 271 kts | 292° |
| 2026-05-04 20:50 | 48.16835 | 16.10930 | 7850 ft | 266 kts | 293° |
| 2026-05-04 20:50 | 48.17628 | 16.08445 | 7541 ft | 264 kts | 293° |
| 2026-05-04 20:51 | 48.18423 | 16.05969 | 7249 ft | 263 kts | 293° |
| 2026-05-04 20:51 | 48.19218 | 16.03502 | 6957 ft | 263 kts | 293° |
| 2026-05-04 20:51 | 48.20010 | 16.01040 | 6674 ft | 261 kts | 295° |
| 2026-05-04 20:51 | 48.20794 | 15.98596 | 6376 ft | 259 kts | 295° |
| 2026-05-04 20:52 | 48.21610 | 15.96195 | 6099 ft | 258 kts | 304° |
| 2026-05-04 20:52 | 48.22912 | 15.94391 | 5795 ft | 257 kts | 332° |
| 2026-05-04 20:52 | 48.24049 | 15.93792 | 5582 ft | 257 kts | 351° |
| 2026-05-04 20:52 | 48.25794 | 15.93959 | 5289 ft | 256 kts | 19° |
| 2026-05-04 20:53 | 48.27396 | 15.95114 | 5036 ft | 255 kts | 36° |
| 2026-05-04 20:53 | 48.28616 | 15.97058 | 4973 ft | 254 kts | 62° |
| 2026-05-04 20:53 | 48.29145 | 15.99525 | 4982 ft | 252 kts | 88° |
| 2026-05-04 20:53 | 48.28895 | 16.02091 | 4980 ft | 250 kts | 114° |
| 2026-05-04 20:54 | 48.28151 | 16.04449 | 4977 ft | 250 kts | 117° |
| 2026-05-04 20:54 | 48.27389 | 16.06803 | 4970 ft | 250 kts | 118° |
| 2026-05-04 20:54 | 48.26643 | 16.09111 | 4969 ft | 239 kts | 118° |
| 2026-05-04 20:54 | 48.25938 | 16.11273 | 4974 ft | 224 kts | 118° |
| 2026-05-04 20:55 | 48.25248 | 16.13364 | 4981 ft | 224 kts | 120° |
| 2026-05-04 20:55 | 48.24554 | 16.15456 | 4985 ft | 223 kts | 119° |
| 2026-05-04 20:55 | 48.23860 | 16.17546 | 4985 ft | 223 kts | 119° |
| 2026-05-04 20:55 | 48.23174 | 16.19619 | 4986 ft | 221 kts | 118° |
| 2026-05-04 20:56 | 48.22499 | 16.21696 | 4989 ft | 221 kts | 118° |
| 2026-05-04 20:56 | 48.21825 | 16.23790 | 4874 ft | 225 kts | 118° |
| 2026-05-04 20:56 | 48.21149 | 16.25890 | 4603 ft | 222 kts | 118° |
| 2026-05-04 20:56 | 48.20481 | 16.27967 | 4300 ft | 221 kts | 118° |
| 2026-05-04 20:57 | 48.19817 | 16.30030 | 4017 ft | 219 kts | 119° |
| 2026-05-04 20:57 | 48.19157 | 16.32082 | 3723 ft | 219 kts | 120° |
| 2026-05-04 20:57 | 48.18493 | 16.34139 | 3435 ft | 218 kts | 120° |
| 2026-05-04 20:57 | 48.17834 | 16.36184 | 3145 ft | 217 kts | 120° |
| 2026-05-04 20:58 | 48.17183 | 16.38197 | 2852 ft | 217 kts | 121° |
| 2026-05-04 20:58 | 48.16528 | 16.40225 | 2560 ft | 215 kts | 121° |
| 2026-05-04 20:58 | 48.15887 | 16.42212 | 2311 ft | 208 kts | 121° |
| 2026-05-04 20:58 | 48.15276 | 16.44106 | 1980 ft | 194 kts | 123° |
| 2026-05-04 20:59 | 48.14723 | 16.45823 | 1722 ft | 172 kts | 123° |
| 2026-05-04 20:59 | 48.14230 | 16.47347 | 1498 ft | 154 kts | 122° |
| 2026-05-04 20:59 | 48.13780 | 16.48731 | 1286 ft | 142 kts | 122° |
| 2026-05-04 20:59 | 48.13363 | 16.50010 | 1141 ft | 133 kts | 123° |
| 2026-05-04 21:00 | 48.12962 | 16.51247 | 956 ft | 130 kts | 121° |
| 2026-05-04 21:00 | 48.12569 | 16.52467 | 767 ft | 131 kts | 119° |
| 2026-05-04 21:00 | 48.12172 | 16.53681 | 632 ft | 126 kts | 118° |
| 2026-05-04 21:00 | 48.11829 | 16.54721 | 621 ft | 96 kts | 116° |
| 2026-05-04 21:01 | 48.11605 | 16.55415 | 610 ft | 60 kts | 116° |
| 2026-05-04 21:01 | 48.11504 | 16.55818 | 610 ft | 26 kts | 98° |
| 2026-05-04 21:01 | 48.11503 | 16.56004 | 614 ft | 15 kts | 84° |
| 2026-05-04 21:01 | 48.11530 | 16.56130 | 614 ft | 6 kts | 37° |
| 2026-05-04 21:02 | 48.11535 | 16.56134 | 618 ft | 0 kts | 30° |